Time;durP1;ratioP1;P1;durP2;ratioP2;P2;SDS_P1;SDS_P2;PMS_P1;PMS_P2;Temp;Humidity;BMP_temperature;BMP_pressure;BME280_temperature;BME280_humidity;BME280_pressure;Samples;Min_cycle;Max_cycle;Signal;HPM_P1;HPM_P2
2021/10/06 00:01:49;;;;;;;0.50;0.50;;;13.20;99.90;;;;;;5056796;28;20206;-73
2021/10/06 00:04:16;;;;;;;1.10;1.00;;;13.10;99.90;;;;;;5056468;28;20243;-73
2021/10/06 00:06:43;;;;;;;1.08;1.05;;;13.20;99.90;;;;;;5055805;28;20233;-72
2021/10/06 00:09:10;;;;;;;1.52;0.80;;;13.20;99.90;;;;;;5054878;28;20207;-72
2021/10/06 00:11:36;;;;;;;1.00;0.90;;;13.20;99.90;;;;;;5054697;28;20213;-72
2021/10/06 00:14:05;;;;;;;6.07;1.08;;;13.20;99.90;;;;;;5054084;28;20207;-72
2021/10/06 00:16:32;;;;;;;1.00;0.90;;;13.10;99.90;;;;;;5054026;28;20314;-72
2021/10/06 00:18:58;;;;;;;2.20;1.08;;;13.10;99.90;;;;;;5054108;28;20207;-72
2021/10/06 00:21:25;;;;;;;1.73;0.80;;;13.10;99.90;;;;;;5053897;28;20223;-72
2021/10/06 00:23:52;;;;;;;0.60;0.60;;;13.10;99.90;;;;;;5054535;28;20209;-72
2021/10/06 00:26:19;;;;;;;0.70;0.70;;;13.10;99.90;;;;;;5054060;28;20231;-72
2021/10/06 00:28:46;;;;;;;0.50;0.50;;;13.10;99.90;;;;;;5054173;28;20290;-72
2021/10/06 00:31:14;;;;;;;1.02;0.93;;;13.10;99.90;;;;;;5054249;28;20203;-72
2021/10/06 00:33:42;;;;;;;0.77;0.77;;;13.00;99.90;;;;;;5054008;28;20290;-72
2021/10/06 00:36:09;;;;;;;1.35;0.85;;;13.00;99.90;;;;;;5053728;28;20313;-72
2021/10/06 00:38:38;;;;;;;1.05;0.80;;;12.90;99.90;;;;;;5054232;28;20203;-72
2021/10/06 00:41:05;;;;;;;0.93;0.80;;;12.80;99.90;;;;;;5054119;28;20223;-72
2021/10/06 00:43:32;;;;;;;0.98;0.80;;;12.70;99.90;;;;;;5054480;28;20390;-72
2021/10/06 00:45:58;;;;;;;0.75;0.75;;;12.60;99.90;;;;;;5056195;28;20735;-72
2021/10/06 00:48:27;;;;;;;2.35;0.88;;;12.60;99.90;;;;;;5058715;28;20298;-72
2021/10/06 00:50:53;;;;;;;1.70;0.75;;;12.60;99.90;;;;;;5058403;28;20203;-72
2021/10/06 00:53:24;;;;;;;1.10;1.00;;;12.50;99.90;;;;;;5057405;28;20204;-72
2021/10/06 00:55:52;;;;;;;0.70;0.70;;;12.50;99.90;;;;;;5057942;28;20611;-72
2021/10/06 00:58:18;;;;;;;1.38;0.80;;;12.50;99.90;;;;;;5057811;28;20203;-72
2021/10/06 01:00:45;;;;;;;1.55;0.85;;;12.40;99.90;;;;;;5057255;28;20319;-72
2021/10/06 01:03:12;;;;;;;1.95;0.90;;;12.40;99.90;;;;;;5057745;28;20206;-72
2021/10/06 01:05:41;;;;;;;0.93;0.90;;;12.40;99.90;;;;;;5057088;28;20227;-72
2021/10/06 01:08:08;;;;;;;1.00;0.80;;;12.50;99.90;;;;;;5057271;28;20231;-72
2021/10/06 01:10:35;;;;;;;0.85;0.70;;;12.50;99.90;;;;;;5057403;28;20203;-72
2021/10/06 01:13:02;;;;;;;1.38;0.80;;;12.30;99.90;;;;;;5057252;28;20203;-72
2021/10/06 01:15:29;;;;;;;0.68;0.68;;;12.30;99.90;;;;;;5057061;28;20203;-72
2021/10/06 01:17:56;;;;;;;0.70;0.70;;;12.30;99.90;;;;;;5057255;28;20294;-72
2021/10/06 01:20:23;;;;;;;3.05;0.80;;;12.30;99.90;;;;;;5056808;28;20768;-72
2021/10/06 01:22:52;;;;;;;1.85;0.80;;;12.30;99.90;;;;;;5057090;28;20210;-71
2021/10/06 01:25:18;;;;;;;0.70;0.70;;;12.30;99.90;;;;;;5057301;28;20215;-72
2021/10/06 01:27:46;;;;;;;1.58;0.90;;;12.10;99.90;;;;;;5057932;28;20271;-72
2021/10/06 01:30:15;;;;;;;0.70;0.70;;;11.90;99.90;;;;;;5057458;28;20291;-72
2021/10/06 01:32:44;;;;;;;1.50;1.23;;;11.80;99.90;;;;;;5057304;28;20203;-72
2021/10/06 01:35:13;;;;;;;0.80;0.80;;;11.80;99.90;;;;;;5058669;28;20295;-72
2021/10/06 01:37:41;;;;;;;0.82;0.80;;;11.60;99.90;;;;;;5058162;28;20628;-72
2021/10/06 01:40:12;;;;;;;0.82;0.82;;;11.40;99.90;;;;;;5058370;28;20231;-72
2021/10/06 01:42:39;;;;;;;1.42;1.02;;;11.40;99.90;;;;;;5056796;28;20204;-71
2021/10/06 01:45:14;;;;;;;1.13;0.90;;;11.20;99.90;;;;;;5057498;28;20210;-72
2021/10/06 01:47:41;;;;;;;0.80;0.80;;;11.20;99.90;;;;;;5057156;28;20583;-71
2021/10/06 01:50:08;;;;;;;1.70;0.93;;;11.20;99.90;;;;;;5058139;28;20263;-72
2021/10/06 01:52:35;;;;;;;0.60;0.60;;;11.10;99.90;;;;;;5057212;28;20200;-71
2021/10/06 01:55:03;;;;;;;1.83;0.80;;;11.10;99.90;;;;;;5057241;28;20569;-72
2021/10/06 01:57:31;;;;;;;1.52;0.70;;;11.10;99.90;;;;;;5057389;28;20230;-72
2021/10/06 01:59:57;;;;;;;1.10;0.75;;;11.20;99.90;;;;;;5056997;28;20209;-72
2021/10/06 02:02:24;;;;;;;0.98;0.90;;;11.30;99.90;;;;;;5056208;28;20673;-72
2021/10/06 02:04:51;;;;;;;0.80;0.75;;;11.40;99.90;;;;;;5056179;28;20199;-72
2021/10/06 02:07:18;;;;;;;1.05;0.90;;;11.60;99.90;;;;;;5056020;28;20224;-72
2021/10/06 02:09:45;;;;;;;1.08;0.80;;;11.60;99.90;;;;;;5055973;28;20210;-72
2021/10/06 02:12:11;;;;;;;0.80;0.80;;;11.70;99.90;;;;;;5055946;28;20629;-71
2021/10/06 02:14:40;;;;;;;0.95;0.70;;;11.70;99.90;;;;;;5055815;28;20286;-72
2021/10/06 02:17:07;;;;;;;0.90;0.82;;;11.80;99.90;;;;;;5055930;28;20252;-71
2021/10/06 02:19:34;;;;;;;0.82;0.80;;;11.80;99.90;;;;;;5055887;28;20203;-72
2021/10/06 02:22:00;;;;;;;3.05;0.88;;;11.80;99.90;;;;;;5055998;28;20233;-72
2021/10/06 02:24:27;;;;;;;0.70;0.70;;;11.80;99.90;;;;;;5056111;28;20235;-72
2021/10/06 02:26:54;;;;;;;1.10;1.00;;;11.90;99.90;;;;;;5056665;28;20231;-72
2021/10/06 02:29:21;;;;;;;1.10;1.00;;;11.80;99.90;;;;;;5056021;28;20207;-72
2021/10/06 02:31:49;;;;;;;0.75;0.70;;;11.90;99.90;;;;;;5055894;28;20765;-72
2021/10/06 02:34:16;;;;;;;0.73;0.73;;;11.90;99.90;;;;;;5057017;28;20204;-72
2021/10/06 02:36:43;;;;;;;1.10;1.00;;;11.80;99.90;;;;;;5056641;28;20306;-72
2021/10/06 02:39:10;;;;;;;1.77;1.10;;;11.80;99.90;;;;;;5055807;28;20208;-71
2021/10/06 02:41:36;;;;;;;1.75;1.10;;;11.80;99.90;;;;;;5055900;28;20317;-71
2021/10/06 02:44:04;;;;;;;1.77;0.90;;;11.70;99.90;;;;;;5056839;28;20290;-72
2021/10/06 02:46:31;;;;;;;1.23;1.13;;;11.60;99.90;;;;;;5056780;28;20577;-72
2021/10/06 02:48:59;;;;;;;1.33;1.05;;;11.60;99.90;;;;;;5056468;28;20722;-72
2021/10/06 02:51:26;;;;;;;0.80;0.80;;;11.60;99.90;;;;;;5056280;28;20291;-72
2021/10/06 02:53:52;;;;;;;2.40;1.17;;;11.50;99.90;;;;;;5056648;28;20205;-72
2021/10/06 02:56:19;;;;;;;1.88;0.80;;;11.50;99.90;;;;;;5055883;28;20711;-72
2021/10/06 02:58:46;;;;;;;2.38;1.08;;;11.40;99.90;;;;;;5055834;28;20665;-72
2021/10/06 03:01:13;;;;;;;0.90;0.90;;;11.40;99.90;;;;;;5056471;28;20225;-72
2021/10/06 03:03:40;;;;;;;0.80;0.80;;;11.40;99.90;;;;;;5055714;28;20203;-72
2021/10/06 03:06:08;;;;;;;1.10;1.00;;;11.40;99.90;;;;;;5056151;28;20226;-72
2021/10/06 03:08:35;;;;;;;3.10;1.08;;;11.50;99.90;;;;;;5055658;28;20207;-72
2021/10/06 03:11:03;;;;;;;0.80;0.80;;;11.50;99.90;;;;;;5056091;28;20294;-71
2021/10/06 03:13:30;;;;;;;1.00;0.90;;;11.40;99.90;;;;;;5055814;28;20199;-71
2021/10/06 03:15:58;;;;;;;1.45;1.10;;;11.40;99.90;;;;;;5055210;28;20227;-71
2021/10/06 03:18:25;;;;;;;1.17;1.08;;;11.50;99.90;;;;;;5055016;28;20298;-71
2021/10/06 03:20:53;;;;;;;0.77;0.70;;;11.40;99.90;;;;;;5055045;28;20229;-71
2021/10/06 03:23:22;;;;;;;1.05;1.00;;;11.40;99.90;;;;;;5054995;28;20633;-71
2021/10/06 03:25:49;;;;;;;0.93;0.93;;;11.40;99.90;;;;;;5055576;28;20237;-72
2021/10/06 03:28:16;;;;;;;2.53;1.20;;;11.40;99.90;;;;;;5054814;28;20661;-71
2021/10/06 03:30:43;;;;;;;1.00;1.00;;;11.50;99.90;;;;;;5054946;28;20286;-71
2021/10/06 03:33:10;;;;;;;0.90;0.90;;;11.50;99.90;;;;;;5055122;28;20729;-71
2021/10/06 03:35:37;;;;;;;1.38;0.93;;;11.60;99.90;;;;;;5054913;28;20766;-71
2021/10/06 03:38:04;;;;;;;2.13;0.95;;;11.70;99.90;;;;;;5056063;28;20294;-72
2021/10/06 03:40:32;;;;;;;1.30;1.20;;;11.80;99.90;;;;;;5054998;28;20258;-71
2021/10/06 03:42:59;;;;;;;0.95;0.85;;;11.80;99.90;;;;;;5055186;28;20211;-72
2021/10/06 03:45:25;;;;;;;0.90;0.90;;;11.90;99.90;;;;;;5055910;28;20199;-72
2021/10/06 03:47:52;;;;;;;2.45;2.15;;;11.90;99.90;;;;;;5055440;28;20290;-72
2021/10/06 03:50:19;;;;;;;1.42;1.20;;;11.90;99.90;;;;;;5054395;28;20203;-72
2021/10/06 03:52:47;;;;;;;1.50;1.38;;;11.90;99.90;;;;;;5054960;28;20215;-72
2021/10/06 03:55:14;;;;;;;1.42;0.75;;;11.90;99.90;;;;;;5054770;28;20206;-72
2021/10/06 03:57:42;;;;;;;1.20;0.82;;;12.00;99.90;;;;;;5055082;28;20223;-72
2021/10/06 04:00:10;;;;;;;0.90;0.90;;;11.90;99.90;;;;;;5055693;28;20294;-72
2021/10/06 04:02:37;;;;;;;0.82;0.80;;;12.00;99.90;;;;;;5055308;28;20571;-72
2021/10/06 04:05:05;;;;;;;1.98;0.75;;;12.00;99.90;;;;;;5055609;28;20204;-72
2021/10/06 04:07:32;;;;;;;1.05;0.95;;;12.00;99.90;;;;;;5054637;28;20731;-71
2021/10/06 04:09:59;;;;;;;2.15;0.98;;;11.90;99.90;;;;;;5054630;28;20210;-71
2021/10/06 04:12:26;;;;;;;0.93;0.93;;;12.00;99.90;;;;;;5054439;28;20294;-71
2021/10/06 04:14:54;;;;;;;1.20;1.10;;;12.00;99.90;;;;;;5054282;28;20203;-71
2021/10/06 04:17:21;;;;;;;1.77;0.90;;;12.10;99.90;;;;;;5054982;28;20249;-72
2021/10/06 04:19:48;;;;;;;1.20;1.10;;;12.10;99.90;;;;;;5054776;28;20206;-71
2021/10/06 04:22:15;;;;;;;1.40;1.30;;;12.10;99.90;;;;;;5058276;28;20322;-71
2021/10/06 04:24:41;;;;;;;1.00;0.90;;;12.00;99.90;;;;;;5059202;28;20744;-72
2021/10/06 04:27:08;;;;;;;1.20;1.17;;;12.00;99.90;;;;;;5059242;28;20225;-71
2021/10/06 04:29:35;;;;;;;1.08;0.70;;;11.90;99.90;;;;;;5059633;28;20654;-72
2021/10/06 04:32:04;;;;;;;1.75;1.20;;;11.90;99.90;;;;;;5059031;28;20238;-72
2021/10/06 04:34:31;;;;;;;0.70;0.70;;;12.00;99.90;;;;;;5059500;28;20204;-72
2021/10/06 04:36:58;;;;;;;0.80;0.80;;;11.90;99.90;;;;;;5059086;28;20721;-72
2021/10/06 04:39:25;;;;;;;0.80;0.80;;;11.90;99.90;;;;;;5059403;28;20209;-72
2021/10/06 04:41:51;;;;;;;0.70;0.70;;;12.00;99.90;;;;;;5058399;28;20318;-72
2021/10/06 04:44:18;;;;;;;0.70;0.70;;;12.00;99.90;;;;;;5059084;28;20258;-72
2021/10/06 04:46:47;;;;;;;0.88;0.88;;;12.00;99.90;;;;;;5059077;28;20223;-72
2021/10/06 04:49:15;;;;;;;0.93;0.70;;;12.00;99.90;;;;;;5059274;28;20211;-72
2021/10/06 04:51:42;;;;;;;0.80;0.80;;;11.90;99.90;;;;;;5058921;28;20290;-72
2021/10/06 04:54:09;;;;;;;1.02;0.93;;;11.90;99.90;;;;;;5058856;28;20436;-72
2021/10/06 04:56:36;;;;;;;1.23;1.13;;;11.90;99.90;;;;;;5058904;28;20233;-72
2021/10/06 04:59:03;;;;;;;1.05;0.95;;;11.90;99.90;;;;;;5059482;28;20311;-72
2021/10/06 05:01:30;;;;;;;0.85;0.70;;;11.90;99.90;;;;;;5059038;28;20558;-72
2021/10/06 05:03:57;;;;;;;1.27;1.08;;;11.90;99.90;;;;;;5058460;28;20282;-72
2021/10/06 05:06:25;;;;;;;1.40;1.05;;;11.90;99.90;;;;;;5058413;28;20227;-72
2021/10/06 05:08:52;;;;;;;1.60;0.70;;;12.00;99.90;;;;;;5057953;28;20665;-72
2021/10/06 05:11:18;;;;;;;1.20;1.02;;;11.90;99.90;;;;;;5058286;28;20235;-72
2021/10/06 05:13:45;;;;;;;2.20;1.60;;;11.90;99.90;;;;;;5057964;28;20203;-72
2021/10/06 05:16:12;;;;;;;1.00;1.00;;;12.00;99.90;;;;;;5057890;28;20230;-71
2021/10/06 05:18:39;;;;;;;3.22;0.80;;;12.00;99.90;;;;;;5058321;28;20290;-72
2021/10/06 05:21:06;;;;;;;0.93;0.88;;;12.00;99.90;;;;;;5057982;28;20230;-72
2021/10/06 05:23:34;;;;;;;0.90;0.90;;;12.10;99.90;;;;;;5057967;28;20606;-72
2021/10/06 05:26:01;;;;;;;1.30;1.20;;;12.10;99.90;;;;;;5058218;28;20650;-73
2021/10/06 05:28:28;;;;;;;1.25;0.98;;;12.10;99.90;;;;;;5058325;28;20214;-72
2021/10/06 05:30:55;;;;;;;1.52;1.38;;;12.00;99.90;;;;;;5057410;28;20204;-72
2021/10/06 05:33:22;;;;;;;4.32;1.00;;;12.00;99.90;;;;;;5057857;28;20203;-72
2021/10/06 05:35:49;;;;;;;0.90;0.90;;;12.00;99.90;;;;;;5057616;28;20644;-72
2021/10/06 05:38:16;;;;;;;1.52;0.90;;;12.00;99.90;;;;;;5058043;28;20218;-72
2021/10/06 05:40:44;;;;;;;0.68;0.68;;;12.00;99.90;;;;;;5057876;28;20207;-72
2021/10/06 05:43:12;;;;;;;0.90;0.90;;;12.00;99.90;;;;;;5057340;28;20580;-72
2021/10/06 05:45:39;;;;;;;1.15;0.90;;;12.00;99.90;;;;;;5057460;28;20230;-72
2021/10/06 05:48:06;;;;;;;3.30;2.35;;;12.00;99.90;;;;;;5057462;28;20298;-72
2021/10/06 05:50:34;;;;;;;0.80;0.80;;;12.00;99.90;;;;;;5057642;28;20210;-72
2021/10/06 05:53:02;;;;;;;0.98;0.70;;;12.00;99.90;;;;;;5057497;28;20651;-72
2021/10/06 05:55:29;;;;;;;0.90;0.73;;;12.00;99.90;;;;;;5057806;28;20204;-72
2021/10/06 05:57:57;;;;;;;2.58;0.80;;;12.00;99.90;;;;;;5057596;28;20289;-72
2021/10/06 06:00:24;;;;;;;1.13;0.90;;;12.00;99.90;;;;;;5057911;28;20290;-72
2021/10/06 06:02:51;;;;;;;0.98;0.90;;;12.00;99.90;;;;;;5056932;28;20711;-72
2021/10/06 06:05:19;;;;;;;0.98;0.82;;;12.00;99.90;;;;;;5057568;28;20665;-72
2021/10/06 06:07:46;;;;;;;0.70;0.70;;;12.10;99.90;;;;;;5057559;28;20227;-72
2021/10/06 06:10:14;;;;;;;1.10;0.90;;;12.10;99.90;;;;;;5057223;28;20199;-72
2021/10/06 06:12:43;;;;;;;4.20;0.90;;;12.10;99.90;;;;;;5057522;28;20200;-72
2021/10/06 06:15:12;;;;;;;1.15;1.00;;;12.10;99.90;;;;;;5057442;28;20204;-73
2021/10/06 06:17:39;;;;;;;0.90;0.90;;;12.10;99.90;;;;;;5058142;28;20227;-73
2021/10/06 06:20:10;;;;;;;4.75;1.02;;;12.20;99.90;;;;;;5057561;28;20207;-73
2021/10/06 06:22:38;;;;;;;0.82;0.82;;;12.10;99.90;;;;;;5057053;28;20230;-72
2021/10/06 06:25:06;;;;;;;0.82;0.77;;;12.10;99.90;;;;;;5057414;28;20218;-73
2021/10/06 06:27:33;;;;;;;1.20;1.10;;;12.10;99.90;;;;;;5056964;28;20619;-72
2021/10/06 06:29:59;;;;;;;1.00;0.90;;;12.00;99.90;;;;;;5057168;28;20203;-72
2021/10/06 06:32:28;;;;;;;0.60;0.60;;;12.00;99.90;;;;;;5057225;28;20195;-72
2021/10/06 06:34:54;;;;;;;2.35;0.90;;;12.00;99.90;;;;;;5057475;28;20210;-72
2021/10/06 06:37:21;;;;;;;1.13;1.02;;;11.90;99.90;;;;;;5056913;28;20229;-72
2021/10/06 06:39:48;;;;;;;1.20;1.10;;;11.90;99.90;;;;;;5057018;28;20293;-72
2021/10/06 06:42:15;;;;;;;0.75;0.75;;;11.90;99.90;;;;;;5056841;28;20233;-72
2021/10/06 06:44:42;;;;;;;0.88;0.70;;;11.90;99.90;;;;;;5056212;28;20207;-72
2021/10/06 06:47:09;;;;;;;0.90;0.80;;;11.80;99.90;;;;;;5057218;28;20219;-72
2021/10/06 06:49:37;;;;;;;2.20;1.10;;;11.80;99.90;;;;;;5054203;28;20666;-71
2021/10/06 06:52:04;;;;;;;1.42;0.70;;;11.80;99.90;;;;;;5058452;28;20214;-71
2021/10/06 06:54:31;;;;;;;2.80;0.70;;;11.80;99.90;;;;;;5055457;28;20207;-71
2021/10/06 06:56:58;;;;;;;3.05;0.82;;;11.80;99.90;;;;;;5055612;28;20223;-71
2021/10/06 06:59:25;;;;;;;1.80;0.90;;;11.80;99.90;;;;;;5055494;28;20203;-71
2021/10/06 07:01:53;;;;;;;1.38;0.98;;;11.80;99.90;;;;;;5055066;28;20580;-71
2021/10/06 07:04:20;;;;;;;3.40;1.10;;;11.80;99.90;;;;;;5055326;28;20290;-71
2021/10/06 07:06:48;;;;;;;1.95;1.33;;;11.80;99.90;;;;;;5055451;28;20314;-71
2021/10/06 07:09:19;;;;;;;1.27;1.00;;;11.90;99.90;;;;;;5055566;28;20570;-71
2021/10/06 07:11:46;;;;;;;1.55;1.45;;;11.90;99.90;;;;;;5055099;28;20207;-71
2021/10/06 07:14:13;;;;;;;1.00;1.00;;;11.90;99.90;;;;;;5055585;28;20297;-71
2021/10/06 07:16:40;;;;;;;2.05;1.40;;;11.90;99.90;;;;;;5055385;28;20224;-71
2021/10/06 07:19:07;;;;;;;2.50;0.95;;;11.90;99.90;;;;;;5055232;28;20568;-71
2021/10/06 07:21:34;;;;;;;1.30;1.20;;;12.10;99.90;;;;;;5055061;28;20204;-71
2021/10/06 07:24:02;;;;;;;1.60;0.77;;;12.10;99.90;;;;;;5054677;28;20570;-72
2021/10/06 07:26:29;;;;;;;1.45;0.73;;;12.20;99.90;;;;;;5054528;28;20725;-72
2021/10/06 07:28:55;;;;;;;1.98;1.20;;;12.10;99.90;;;;;;5054679;28;20697;-71
2021/10/06 07:31:22;;;;;;;0.90;0.85;;;12.10;99.90;;;;;;5054965;28;20290;-71
2021/10/06 07:33:52;;;;;;;3.42;2.05;;;12.10;99.90;;;;;;5054443;28;20211;-71
2021/10/06 07:36:18;;;;;;;3.65;2.45;;;12.10;99.90;;;;;;5054432;28;20273;-71
2021/10/06 07:38:45;;;;;;;2.05;1.45;;;12.00;99.90;;;;;;5054677;28;20211;-71
2021/10/06 07:41:13;;;;;;;1.13;0.95;;;12.10;99.90;;;;;;5055115;28;20626;-71
2021/10/06 07:43:40;;;;;;;0.93;0.82;;;12.30;99.90;;;;;;5054917;28;20265;-75
2021/10/06 07:46:07;;;;;;;0.75;0.70;;;12.40;99.90;;;;;;5054058;28;20310;-74
2021/10/06 07:48:34;;;;;;;1.58;1.30;;;12.60;99.90;;;;;;5053870;28;20234;-75
2021/10/06 07:51:01;;;;;;;1.38;1.02;;;12.70;99.90;;;;;;5053839;28;20286;-75
2021/10/06 07:53:27;;;;;;;1.83;0.90;;;12.80;99.90;;;;;;5052599;28;20295;-75
2021/10/06 07:55:54;;;;;;;1.75;1.05;;;12.90;99.90;;;;;;5052772;28;20314;-76
2021/10/06 07:58:22;;;;;;;3.33;1.00;;;13.00;99.90;;;;;;5053512;28;20290;-74
2021/10/06 08:00:49;;;;;;;1.35;0.80;;;13.10;99.90;;;;;;5054496;28;20302;-75
2021/10/06 08:03:16;;;;;;;0.90;0.82;;;13.10;99.90;;;;;;5055953;28;20697;-73
2021/10/06 08:05:44;;;;;;;1.38;0.85;;;13.10;99.90;;;;;;5055142;28;20233;-73
2021/10/06 08:08:11;;;;;;;1.35;0.82;;;13.20;99.90;;;;;;5055307;28;20256;-73
2021/10/06 08:10:38;;;;;;;1.60;0.80;;;13.20;99.90;;;;;;5055902;28;20658;-73
2021/10/06 08:13:05;;;;;;;1.38;1.00;;;13.40;99.90;;;;;;5055197;28;20204;-72
2021/10/06 08:15:34;;;;;;;0.90;0.90;;;13.50;99.90;;;;;;5055364;28;20250;-73
2021/10/06 08:18:03;;;;;;;0.80;0.80;;;13.60;99.90;;;;;;5055714;28;20231;-73
2021/10/06 08:20:33;;;;;;;1.60;0.65;;;13.60;99.90;;;;;;5055534;28;20298;-73
2021/10/06 08:23:01;;;;;;;0.60;0.60;;;13.70;99.90;;;;;;5055073;28;20223;-72
2021/10/06 08:25:28;;;;;;;1.25;0.85;;;13.80;99.90;;;;;;5055528;28;20294;-73
2021/10/06 08:27:55;;;;;;;1.55;1.05;;;13.90;99.90;;;;;;5055333;28;20214;-73
2021/10/06 08:30:22;;;;;;;2.15;1.70;;;14.00;99.90;;;;;;5055545;28;20212;-73
2021/10/06 08:32:51;;;;;;;1.33;0.90;;;14.10;99.90;;;;;;5055170;28;20670;-72
2021/10/06 08:35:18;;;;;;;0.88;0.88;;;14.10;99.90;;;;;;5055586;28;20204;-73
2021/10/06 08:37:45;;;;;;;1.17;0.90;;;14.10;99.90;;;;;;5055186;28;20765;-72
2021/10/06 08:40:13;;;;;;;0.80;0.80;;;14.20;99.90;;;;;;5055056;28;20297;-73
2021/10/06 08:42:41;;;;;;;1.92;0.85;;;14.10;99.90;;;;;;5055306;28;20312;-72
2021/10/06 08:45:09;;;;;;;2.50;0.85;;;14.10;99.90;;;;;;5055059;28;20199;-73
2021/10/06 08:47:37;;;;;;;1.33;0.90;;;14.00;99.90;;;;;;5054734;28;20585;-73
2021/10/06 08:50:08;;;;;;;1.42;0.95;;;14.00;99.90;;;;;;5054917;28;20200;-73
2021/10/06 08:52:35;;;;;;;0.90;0.68;;;13.90;99.90;;;;;;5054975;28;20195;-72
2021/10/06 08:55:03;;;;;;;0.70;0.70;;;13.80;99.90;;;;;;5055478;28;20210;-73
2021/10/06 08:57:30;;;;;;;0.90;0.90;;;13.90;99.90;;;;;;5055554;28;20224;-73
2021/10/06 08:59:57;;;;;;;1.17;0.90;;;13.80;99.90;;;;;;5055209;28;20737;-73
2021/10/06 09:02:24;;;;;;;0.80;0.80;;;13.90;99.90;;;;;;5055327;28;20319;-72
2021/10/06 09:04:52;;;;;;;1.73;1.10;;;13.90;99.90;;;;;;5055208;28;20205;-73
2021/10/06 09:07:20;;;;;;;1.10;1.00;;;13.80;99.90;;;;;;5057384;28;20242;-73
2021/10/06 09:09:47;;;;;;;1.10;0.90;;;13.80;99.90;;;;;;5058994;28;20725;-73
2021/10/06 09:12:16;;;;;;;0.80;0.80;;;13.70;99.90;;;;;;5058698;28;20203;-72
2021/10/06 09:14:45;;;;;;;1.05;0.80;;;13.70;99.90;;;;;;5058770;28;20204;-73
2021/10/06 09:17:14;;;;;;;1.20;1.10;;;13.80;99.90;;;;;;5058415;28;20322;-73
2021/10/06 09:19:43;;;;;;;0.82;0.82;;;13.90;99.90;;;;;;5058750;28;20227;-73
2021/10/06 09:22:15;;;;;;;1.73;0.90;;;14.00;99.90;;;;;;5058360;28;20208;-72
2021/10/06 09:24:55;;;;;;;3.10;0.80;;;13.90;99.90;;;;;;5058430;28;20214;-73
2021/10/06 09:27:24;;;;;;;2.30;1.40;;;14.00;99.90;;;;;;5058953;28;20219;-73
2021/10/06 09:29:52;;;;;;;1.50;0.82;;;14.10;99.90;;;;;;5058549;28;20231;-73
2021/10/06 09:32:24;;;;;;;2.45;1.20;;;14.10;99.90;;;;;;5058481;28;20272;-72
2021/10/06 09:35:05;;;;;;;1.83;0.90;;;14.30;99.90;;;;;;5058644;28;20205;-73
2021/10/06 09:37:33;;;;;;;0.85;0.60;;;14.30;99.90;;;;;;5058326;28;20223;-73
2021/10/06 09:40:01;;;;;;;0.73;0.73;;;14.50;99.90;;;;;;5058561;28;20623;-73
2021/10/06 09:42:28;;;;;;;4.03;2.58;;;14.70;99.90;;;;;;5057647;28;20580;-73
2021/10/06 09:44:56;;;;;;;4.80;2.72;;;14.90;99.90;;;;;;5057512;28;20216;-73
2021/10/06 09:47:24;;;;;;;5.80;2.35;;;14.90;99.90;;;;;;5057577;28;20236;-73
2021/10/06 09:49:56;;;;;;;3.28;2.20;;;15.10;99.90;;;;;;5057433;28;20241;-73
2021/10/06 09:52:24;;;;;;;1.08;0.98;;;15.20;99.90;;;;;;5056470;28;20606;-72
2021/10/06 09:54:53;;;;;;;2.00;0.82;;;15.20;99.90;;;;;;5056851;28;20542;-73
2021/10/06 09:57:29;;;;;;;0.73;0.73;;;15.30;99.90;;;;;;5056580;28;20708;-73
2021/10/06 09:59:57;;;;;;;0.70;0.60;;;15.50;99.90;;;;;;5056713;28;20495;-73
2021/10/06 10:02:26;;;;;;;1.70;0.90;;;15.60;99.90;;;;;;5056337;28;20296;-72
2021/10/06 10:04:54;;;;;;;0.88;0.88;;;15.60;99.90;;;;;;5056481;28;20233;-73
2021/10/06 10:07:22;;;;;;;2.15;0.88;;;15.60;99.90;;;;;;5055875;28;20226;-73
2021/10/06 10:09:49;;;;;;;1.70;0.77;;;15.60;99.90;;;;;;5056041;28;20211;-73
2021/10/06 10:12:17;;;;;;;1.05;0.90;;;15.50;99.90;;;;;;5056872;28;20202;-72
2021/10/06 10:14:46;;;;;;;0.70;0.70;;;15.40;99.90;;;;;;5056627;28;20206;-73
2021/10/06 10:17:13;;;;;;;1.15;0.80;;;15.30;99.90;;;;;;5056070;28;20317;-72
2021/10/06 10:19:40;;;;;;;1.17;0.60;;;15.10;99.90;;;;;;5056341;28;20210;-73
2021/10/06 10:22:07;;;;;;;0.70;0.70;;;14.90;99.90;;;;;;5057440;28;20212;-73
2021/10/06 10:24:45;;;;;;;1.65;0.50;;;14.80;99.90;;;;;;5057107;28;20236;-73
2021/10/06 10:27:14;;;;;;;0.93;0.70;;;14.70;99.90;;;;;;5057019;28;20228;-73
2021/10/06 10:29:47;;;;;;;0.43;0.43;;;14.60;99.90;;;;;;5056892;28;20207;-73
2021/10/06 10:32:17;;;;;;;0.60;0.50;;;14.70;99.90;;;;;;5056469;28;20666;-72
2021/10/06 10:35:00;;;;;;;0.50;0.50;;;14.70;99.90;;;;;;5056671;28;20205;-73
2021/10/06 10:38:15;;;;;;;0.88;0.70;;;14.70;99.90;;;;;;5054799;28;20311;-73
2021/10/06 10:40:44;;;;;;;0.95;0.70;;;14.60;99.90;;;;;;5056411;28;20205;-73
2021/10/06 10:43:12;;;;;;;1.15;1.00;;;14.70;99.90;;;;;;5055458;28;20226;-72
2021/10/06 10:45:52;;;;;;;1.27;0.70;;;14.60;99.90;;;;;;5055374;28;20214;-73
2021/10/06 10:48:22;;;;;;;1.08;0.98;;;14.60;99.90;;;;;;5055417;28;20188;-73
2021/10/06 10:51:07;;;;;;;1.00;0.90;;;14.70;99.90;;;;;;5056141;28;20292;-72
2021/10/06 10:54:00;;;;;;;2.63;0.90;;;14.90;99.90;;;;;;5055125;28;20289;-73
2021/10/06 10:56:41;;;;;;;1.05;0.60;;;15.20;99.90;;;;;;5056159;28;20260;-73
2021/10/06 10:59:10;;;;;;;1.50;0.90;;;15.10;99.90;;;;;;5055415;28;20206;-72
2021/10/06 11:01:45;;;;;;;1.20;0.90;;;14.90;99.90;;;;;;5055949;28;20205;-73
2021/10/06 11:04:17;;;;;;;1.10;0.80;;;14.70;99.90;;;;;;5055498;28;20230;-73
2021/10/06 11:06:45;;;;;;;1.25;1.00;;;14.30;99.90;;;;;;5055874;28;20234;-74
2021/10/06 11:09:46;;;;;;;1.40;0.80;;;14.30;99.90;;;;;;5055231;28;20200;-73
2021/10/06 11:12:30;;;;;;;0.70;0.70;;;14.20;99.90;;;;;;5055113;28;20772;-72
2021/10/06 11:15:27;;;;;;;0.93;0.80;;;14.20;99.90;;;;;;5055407;28;20200;-74
2021/10/06 11:18:25;;;;;;;0.95;0.85;;;14.50;99.90;;;;;;5055480;28;20192;-73
2021/10/06 11:21:04;;;;;;;0.90;0.88;;;14.80;99.90;;;;;;5055052;28;20296;-73
2021/10/06 11:23:53;;;;;;;1.25;0.93;;;15.00;99.90;;;;;;5055155;28;20252;-73
2021/10/06 11:26:29;;;;;;;1.40;0.90;;;15.10;99.90;;;;;;5054885;28;20248;-74
2021/10/06 11:28:58;;;;;;;1.08;1.08;;;15.10;99.90;;;;;;5055007;28;20622;-73
2021/10/06 11:31:27;;;;;;;1.15;1.05;;;15.30;99.90;;;;;;5055355;28;20211;-73
2021/10/06 11:33:56;;;;;;;1.02;0.70;;;15.30;99.90;;;;;;5054977;28;20657;-73
2021/10/06 11:36:24;;;;;;;1.45;0.90;;;15.30;99.90;;;;;;5054903;28;20236;-73
2021/10/06 11:38:55;;;;;;;1.00;0.90;;;15.30;99.90;;;;;;5055269;28;20210;-73
2021/10/06 11:41:22;;;;;;;1.85;0.90;;;15.40;99.90;;;;;;5055048;28;20216;-72
2021/10/06 11:43:51;;;;;;;2.17;0.90;;;15.50;99.90;;;;;;5055139;28;20233;-73
2021/10/06 11:46:21;;;;;;;1.30;1.00;;;15.60;99.90;;;;;;5054912;28;20230;-73
2021/10/06 11:48:53;;;;;;;0.88;0.85;;;15.50;99.90;;;;;;5054541;28;20208;-73
2021/10/06 11:51:22;;;;;;;1.08;0.98;;;15.70;99.90;;;;;;5054626;28;20635;-73
2021/10/06 11:53:50;;;;;;;1.10;1.00;;;16.20;99.90;;;;;;5054305;28;20214;-73
2021/10/06 11:56:25;;;;;;;1.75;0.77;;;16.60;99.90;;;;;;5054007;28;20756;-73
2021/10/06 11:58:52;;;;;;;1.77;0.90;;;17.00;99.90;;;;;;5055638;28;20289;-73
2021/10/06 12:01:19;;;;;;;1.25;0.95;;;17.60;99.90;;;;;;5055396;28;20199;-72
2021/10/06 12:03:46;;;;;;;0.85;0.85;;;18.10;99.90;;;;;;5055289;28;20223;-73
2021/10/06 12:06:19;;;;;;;0.93;0.70;;;18.30;99.90;;;;;;5054212;28;20594;-73
2021/10/06 12:08:48;;;;;;;1.07;0.90;;;18.90;99.90;;;;;;5054390;28;20194;-73
2021/10/06 12:11:17;;;;;;;0.70;0.60;;;19.40;98.70;;;;;;5053502;28;20531;-73
2021/10/06 12:13:44;;;;;;;0.80;0.80;;;19.30;98.20;;;;;;5054172;28;20492;-73
2021/10/06 12:16:21;;;;;;;0.70;0.70;;;19.30;95.90;;;;;;5053853;28;20467;-73
2021/10/06 12:19:00;;;;;;;2.40;0.80;;;18.90;95.40;;;;;;5055486;28;20439;-73
2021/10/06 12:21:29;;;;;;;0.65;0.65;;;18.50;94.40;;;;;;5054904;28;20533;-73
2021/10/06 12:24:00;;;;;;;2.22;0.70;;;17.80;94.50;;;;;;5054258;28;20229;-73
2021/10/06 12:26:32;;;;;;;0.80;0.70;;;17.20;95.70;;;;;;5054496;28;20231;-73
2021/10/06 12:29:04;;;;;;;1.23;0.90;;;16.80;97.80;;;;;;5054377;28;20211;-73
2021/10/06 12:31:32;;;;;;;0.65;0.65;;;16.00;99.90;;;;;;5054949;28;20302;-72
2021/10/06 12:34:11;;;;;;;2.70;2.30;;;15.10;99.90;;;;;;5055441;28;20196;-73
2021/10/06 12:36:44;;;;;;;0.70;0.70;;;14.40;99.90;;;;;;5055866;28;20228;-72
2021/10/06 12:39:16;;;;;;;1.95;0.80;;;14.20;99.90;;;;;;5057120;28;20622;-73
2021/10/06 12:41:51;;;;;;;0.73;0.60;;;14.10;99.90;;;;;;5057325;28;20199;-72
2021/10/06 12:44:24;;;;;;;0.50;0.40;;;14.00;99.90;;;;;;5060604;28;20229;-73
2021/10/06 12:46:53;;;;;;;0.70;0.70;;;13.90;99.90;;;;;;5060435;28;20701;-73
2021/10/06 12:49:20;;;;;;;0.60;0.55;;;14.00;99.90;;;;;;5060028;28;20670;-73
2021/10/06 12:51:56;;;;;;;0.90;0.90;;;14.10;99.90;;;;;;5059807;28;20709;-72
2021/10/06 12:54:27;;;;;;;2.25;0.80;;;14.20;99.90;;;;;;5060204;28;20287;-73
2021/10/06 12:56:58;;;;;;;4.15;0.80;;;14.20;99.90;;;;;;5060018;28;20256;-73